Brookville, Pennsylvania
Current Conditions -  °F | °C
As of 8:11 AM on Thursday 23 Oct 2014 (Local Time) from KDUJ Reporting Station
Overcast Overcast  
Wind Chill: 37°   Ceiling: 1400
Heat Index: 43°   Visibility: 10mi
Dew Point: 39°   Wind: 10mph
Humidity: 86%   Direction: 330°NNW
Pressure: 30.05"   Gusts: NA
Location:  41.16°N, 79.08°W
Report Text: KDUJ 231211Z AUTO 33009KT 10SM OVC014 06/04 A3005 RMK AO2 T00610039
Loading
Personal Weather Stations






























Interactive Weather Map New forecast layout! Learn more

10-Day Weather Forecast

Advertisements
Track Severe Weather on mobile